Time;durP1;ratioP1;P1;durP2;ratioP2;P2;SDS_P1;SDS_P2;PMS_P1;PMS_P2;Temp;Humidity;BMP_temperature;BMP_pressure;BME280_temperature;BME280_humidity;BME280_pressure;Samples;Min_cycle;Max_cycle;Signal;HPM_P1;HPM_P2
2022/05/05 00:01:42;;;;;;;8.93;5.55;;;;;;;9.70;100.00;96796.56;4981848;28;20573;-66
2022/05/05 00:04:08;;;;;;;8.75;5.63;;;;;;;9.66;100.00;96795.69;4978593;28;20034;-66
2022/05/05 00:06:34;;;;;;;8.98;5.90;;;;;;;9.73;100.00;96793.09;4982692;28;20034;-68
2022/05/05 00:08:59;;;;;;;9.50;5.90;;;;;;;9.83;100.00;96789.03;4988250;28;20038;-66
2022/05/05 00:14:25;;;;;;;8.57;5.50;;;;;;;10.28;100.00;96800.44;4977906;28;20057;-68
2022/05/05 00:17:06;;;;;;;9.18;6.50;;;;;;;10.49;100.00;96797.34;4980597;28;20046;-66
2022/05/05 00:19:34;;;;;;;10.73;6.35;;;;;;;10.60;100.00;96792.06;4978066;28;20039;-68
2022/05/05 00:21:59;;;;;;;8.13;5.63;;;;;;;10.68;100.00;96793.78;4969688;28;20042;-68
2022/05/05 00:24:25;;;;;;;8.68;5.55;;;;;;;10.75;100.00;96790.34;4977507;28;20043;-67
2022/05/05 00:26:50;;;;;;;8.82;5.70;;;;;;;10.81;100.00;96786.94;4982301;28;20050;-66
2022/05/05 00:29:16;;;;;;;9.20;5.45;;;;;;;10.88;100.00;96792.56;4992496;28;20046;-67
2022/05/05 00:31:43;;;;;;;6.88;5.50;;;;;;;10.85;100.00;96795.22;4980974;28;20070;-67
2022/05/05 00:34:08;;;;;;;7.00;5.65;;;;;;;10.71;100.00;96795.78;4976193;28;20144;-67
2022/05/05 00:36:33;;;;;;;6.03;4.45;;;;;;;10.77;100.00;96790.78;4981682;28;20638;-66
2022/05/05 00:38:59;;;;;;;7.43;5.93;;;;;;;10.67;100.00;96797.66;4997450;28;20046;-66
2022/05/05 00:41:24;;;;;;;7.75;5.40;;;;;;;10.63;100.00;96799.56;4988041;28;20076;-65
2022/05/05 00:43:50;;;;;;;6.25;4.95;;;;;;;10.70;100.00;96803.22;5002123;28;20049;-67
2022/05/05 00:46:15;;;;;;;9.88;5.65;;;;;;;10.57;100.00;96801.00;4977869;28;20099;-68
2022/05/05 00:48:43;;;;;;;8.48;5.10;;;;;;;10.58;100.00;96803.38;4984559;28;20042;-69
2022/05/05 00:51:08;;;;;;;7.85;5.50;;;;;;;10.77;100.00;96802.56;4974554;28;20053;-69
2022/05/05 00:53:34;;;;;;;5.63;4.32;;;;;;;10.98;100.00;96801.31;4982414;28;20046;-68
2022/05/05 00:56:08;;;;;;;6.88;4.50;;;;;;;11.12;100.00;96801.53;4981939;28;20062;-69
2022/05/05 00:58:34;;;;;;;6.03;4.40;;;;;;;10.38;100.00;96801.84;4980878;28;20049;-67
2022/05/05 01:01:04;;;;;;;6.55;5.43;;;;;;;9.94;100.00;96792.78;4964658;28;20038;-69
2022/05/05 01:03:34;;;;;;;8.65;5.78;;;;;;;9.64;100.00;96786.28;4980310;28;20046;-69
2022/05/05 01:06:01;;;;;;;;;;;;;;;9.48;100.00;96787.09;4963652;28;20079;-69
2022/05/05 01:08:26;;;;;;;19.70;10.70;;;;;;;9.44;100.00;96790.94;4979945;28;20425;-69
2022/05/05 01:10:52;;;;;;;10.18;7.20;;;;;;;9.47;100.00;96795.66;4975218;28;20042;-68
2022/05/05 01:13:17;;;;;;;9.55;6.55;;;;;;;9.62;100.00;96800.31;4977136;28;20471;-67
2022/05/05 01:15:43;;;;;;;10.25;6.50;;;;;;;9.83;100.00;96796.41;4972048;28;20080;-68
2022/05/05 01:18:09;;;;;;;8.70;6.32;;;;;;;10.02;100.00;96804.63;4977632;28;20050;-66
2022/05/05 01:20:43;;;;;;;10.30;5.70;;;;;;;10.19;100.00;96799.88;4981012;28;20401;-68
2022/05/05 01:23:10;;;;;;;9.02;5.55;;;;;;;10.36;100.00;96791.25;4975274;28;20430;-68
2022/05/05 01:28:20;;;;;;;10.15;5.93;;;;;;;10.49;100.00;96811.03;4977525;28;20042;-68
2022/05/05 01:30:48;;;;;;;11.57;5.85;;;;;;;10.65;100.00;96808.97;4983395;28;20038;-69
2022/05/05 01:33:25;;;;;;;8.93;5.75;;;;;;;10.72;100.00;96811.06;4987097;28;20057;-65
2022/05/05 01:35:53;;;;;;;7.70;5.55;;;;;;;10.65;100.00;96805.47;4996395;28;20049;-70
2022/05/05 01:38:36;;;;;;;11.88;6.70;;;;;;;10.55;100.00;96808.78;4982212;28;20082;-73
2022/05/05 01:41:13;;;;;;;11.52;7.68;;;;;;;10.59;100.00;96815.13;4977559;28;20038;-64
2022/05/05 01:43:40;;;;;;;9.13;6.38;;;;;;;10.47;100.00;96810.63;4981571;28;20389;-66
2022/05/05 01:46:06;;;;;;;8.57;6.03;;;;;;;10.45;100.00;96812.94;4975181;28;20030;-68
2022/05/05 01:48:32;;;;;;;9.68;5.97;;;;;;;10.56;100.00;96813.13;4980962;28;20133;-68
2022/05/05 01:50:58;;;;;;;9.15;5.65;;;;;;;10.68;100.00;96816.47;4981629;28;20038;-67
2022/05/05 01:53:24;;;;;;;7.68;5.97;;;;;;;10.68;100.00;96819.22;4980744;28;20903;-67
2022/05/05 01:55:49;;;;;;;7.90;6.22;;;;;;;10.62;100.00;96814.41;4986088;28;20050;-68
2022/05/05 01:58:15;;;;;;;7.38;5.55;;;;;;;10.54;100.00;96815.44;4976692;28;20050;-69
2022/05/05 02:00:40;;;;;;;8.45;6.05;;;;;;;10.42;100.00;96811.69;4975043;28;20542;-69
2022/05/05 02:03:15;;;;;;;10.20;6.18;;;;;;;10.20;100.00;96824.16;4975191;28;20041;-69
2022/05/05 02:05:44;;;;;;;9.25;6.90;;;;;;;10.21;100.00;96819.47;4980562;28;20716;-69
2022/05/05 02:08:11;;;;;;;9.05;6.38;;;;;;;10.20;100.00;96818.69;4980173;28;20042;-68
2022/05/05 02:10:37;;;;;;;8.98;6.18;;;;;;;10.18;100.00;96821.00;4975881;28;20047;-69
2022/05/05 02:13:04;;;;;;;8.85;6.22;;;;;;;10.31;100.00;96822.44;4974896;28;20069;-65
2022/05/05 02:15:29;;;;;;;9.57;6.55;;;;;;;10.39;100.00;96817.09;4980671;28;20046;-69
2022/05/05 02:17:55;;;;;;;8.63;6.07;;;;;;;10.27;100.00;96824.28;4982559;28;20050;-67
2022/05/05 02:20:20;;;;;;;10.65;6.28;;;;;;;10.24;100.00;96821.50;4977129;28;20373;-69
2022/05/05 02:22:46;;;;;;;8.80;6.57;;;;;;;10.13;100.00;96818.53;4981118;28;20066;-68
2022/05/05 02:25:11;;;;;;;12.13;7.05;;;;;;;10.11;100.00;96818.13;4975312;28;20127;-66
2022/05/05 02:27:48;;;;;;;9.40;5.75;;;;;;;10.06;100.00;96827.38;4980799;28;20046;-71
2022/05/05 02:30:14;;;;;;;11.13;5.75;;;;;;;10.19;100.00;96827.25;4975552;28;20034;-68
2022/05/05 02:32:42;;;;;;;9.23;5.82;;;;;;;10.27;100.00;96813.34;4979825;28;20403;-68
2022/05/05 02:35:07;;;;;;;8.10;5.90;;;;;;;10.34;100.00;96812.72;4975796;28;20042;-68
2022/05/05 02:40:17;;;;;;;11.07;7.55;;;;;;;10.49;100.00;96817.31;4975896;28;20053;-68
2022/05/05 02:42:42;;;;;;;15.43;7.18;;;;;;;10.51;100.00;96820.50;4980533;28;20483;-68
2022/05/05 02:45:08;;;;;;;9.75;6.22;;;;;;;10.52;100.00;96813.06;4974029;28;20134;-68
2022/05/05 02:47:34;;;;;;;9.02;6.40;;;;;;;10.55;100.00;96826.00;4979527;28;20069;-66
2022/05/05 02:49:59;;;;;;;10.82;5.90;;;;;;;10.55;100.00;96828.75;4981310;28;20035;-67
2022/05/05 02:52:24;;;;;;;9.65;6.25;;;;;;;10.46;100.00;96825.44;4975784;28;20046;-68
2022/05/05 02:54:54;;;;;;;8.27;6.25;;;;;;;10.38;100.00;96816.31;4981589;28;20050;-68
2022/05/05 02:57:23;;;;;;;;;;;;;;;10.42;100.00;96813.66;4992768;28;20042;-68
2022/05/05 02:59:55;;;;;;;8.23;5.70;;;;;;;10.41;100.00;96814.81;4994010;28;19967;-66
2022/05/05 03:02:22;;;;;;;8.60;6.03;;;;;;;10.37;100.00;96811.19;4977756;28;20415;-67
2022/05/05 03:04:47;;;;;;;8.52;5.78;;;;;;;10.37;100.00;96812.00;4981511;28;20043;-67
2022/05/05 03:07:13;;;;;;;9.23;6.10;;;;;;;10.56;100.00;96815.88;4977064;28;20048;-69
2022/05/05 03:09:41;;;;;;;9.32;6.65;;;;;;;10.64;100.00;96815.63;4978994;28;20455;-68
2022/05/05 03:12:07;;;;;;;7.35;6.38;;;;;;;10.67;100.00;96814.88;4975498;28;20042;-69
2022/05/05 03:14:33;;;;;;;11.38;6.00;;;;;;;10.67;100.00;96814.09;4980745;28;20187;-67
2022/05/05 03:16:58;;;;;;;13.70;6.68;;;;;;;10.41;100.00;96817.56;4980297;28;20046;-68
2022/05/05 03:19:24;;;;;;;9.93;6.30;;;;;;;10.11;100.00;96815.38;4975957;28;20046;-68
2022/05/05 03:21:49;;;;;;;9.88;6.90;;;;;;;9.99;100.00;96807.31;4979977;28;20515;-68
2022/05/05 03:24:15;;;;;;;10.88;6.65;;;;;;;9.91;100.00;96803.63;4989465;28;20042;-68
2022/05/05 03:26:41;;;;;;;11.85;7.80;;;;;;;9.77;100.00;96799.44;4993416;28;20090;-69
2022/05/05 03:29:06;;;;;;;10.43;7.90;;;;;;;9.67;100.00;96796.47;4976323;28;20047;-65
2022/05/05 03:31:32;;;;;;;13.73;8.48;;;;;;;9.44;100.00;96796.41;4980417;28;20487;-67
2022/05/05 03:33:58;;;;;;;15.65;10.35;;;;;;;9.25;100.00;96797.13;4980509;28;20460;-69
2022/05/05 03:36:23;;;;;;;14.43;8.43;;;;;;;9.27;100.00;96798.34;4973560;28;20051;-69
2022/05/05 03:38:49;;;;;;;13.27;9.63;;;;;;;9.36;100.00;96798.16;4980477;28;20062;-68
2022/05/05 03:41:15;;;;;;;15.13;9.23;;;;;;;9.41;100.00;96797.88;4967116;28;20054;-67
2022/05/05 03:43:40;;;;;;;12.95;8.85;;;;;;;9.64;100.00;96806.19;4984933;28;20073;-65
2022/05/05 03:46:06;;;;;;;17.00;10.07;;;;;;;9.83;100.00;96796.41;4977829;28;20046;-66
2022/05/05 03:48:32;;;;;;;12.32;7.50;;;;;;;9.93;100.00;96795.88;4994794;28;20046;-66
2022/05/05 03:50:58;;;;;;;14.73;7.97;;;;;;;9.93;100.00;96802.13;4981959;28;20038;-69
2022/05/05 03:53:23;;;;;;;11.40;8.15;;;;;;;9.91;100.00;96798.94;4971731;28;20956;-67
2022/05/05 03:55:48;;;;;;;12.98;8.40;;;;;;;9.74;100.00;96802.09;4979786;28;20051;-68
2022/05/05 03:58:14;;;;;;;17.35;10.13;;;;;;;9.38;100.00;96799.41;4991860;28;20050;-69
2022/05/05 04:00:39;;;;;;;13.43;9.93;;;;;;;9.26;100.00;96804.97;4983858;28;20065;-69
2022/05/05 04:05:49;;;;;;;17.08;9.80;;;;;;;9.38;100.00;96802.13;4985961;28;20049;-68
2022/05/05 04:08:14;;;;;;;12.88;8.63;;;;;;;9.52;100.00;96811.78;4995128;28;20049;-68
2022/05/05 04:10:40;;;;;;;11.32;8.85;;;;;;;9.63;100.00;96809.28;5006713;28;20038;-69
2022/05/05 04:13:06;;;;;;;16.10;9.75;;;;;;;9.75;100.00;96812.69;4994546;28;20042;-65
2022/05/05 04:15:33;;;;;;;10.45;7.97;;;;;;;9.85;100.00;96821.47;4992732;28;20095;-68
2022/05/05 04:18:00;;;;;;;12.55;8.48;;;;;;;9.74;100.00;96819.31;4986079;28;20046;-68
2022/05/05 04:20:25;;;;;;;13.70;8.82;;;;;;;9.67;100.00;96824.63;4979179;28;20046;-70
2022/05/05 04:22:51;;;;;;;12.43;8.75;;;;;;;9.66;100.00;96819.53;4977703;28;20522;-69
2022/05/05 04:25:17;;;;;;;14.18;8.35;;;;;;;9.69;100.00;96819.59;4968166;28;20050;-69
2022/05/05 04:27:43;;;;;;;12.88;7.35;;;;;;;9.75;100.00;96822.84;4974705;28;20042;-67
2022/05/05 04:30:09;;;;;;;12.98;7.40;;;;;;;9.86;100.00;96823.84;4974219;28;20057;-67
2022/05/05 04:32:35;;;;;;;10.15;8.15;;;;;;;9.84;100.00;96819.91;4979646;28;20081;-67
2022/05/05 04:35:01;;;;;;;12.23;7.53;;;;;;;9.91;100.00;96828.25;4980979;28;20045;-70
2022/05/05 04:37:27;;;;;;;10.90;8.38;;;;;;;9.94;100.00;96827.56;4982189;28;20046;-66
2022/05/05 04:39:53;;;;;;;12.25;7.97;;;;;;;10.12;100.00;96827.91;4995035;28;20109;-66
2022/05/05 04:42:18;;;;;;;12.10;8.40;;;;;;;10.17;100.00;96833.06;4983458;28;20086;-69
2022/05/05 04:44:43;;;;;;;12.00;7.47;;;;;;;10.47;100.00;96840.75;4982455;28;20072;-67
2022/05/05 04:47:09;;;;;;;9.82;7.18;;;;;;;10.66;100.00;96837.16;4976970;28;20523;-68
2022/05/05 04:49:34;;;;;;;9.65;7.50;;;;;;;10.61;100.00;96832.00;4988326;28;20095;-68
2022/05/05 04:52:00;;;;;;;10.70;7.32;;;;;;;10.68;100.00;96832.91;4989511;28;20038;-68
2022/05/05 04:54:25;;;;;;;12.15;7.18;;;;;;;10.68;100.00;96832.13;4975940;28;20046;-69
2022/05/05 04:56:50;;;;;;;12.65;6.80;;;;;;;10.65;100.00;96838.34;4972421;28;20138;-67
2022/05/05 04:59:16;;;;;;;11.32;7.28;;;;;;;10.50;100.00;96835.31;4975718;28;20042;-69
2022/05/05 05:01:41;;;;;;;13.45;8.18;;;;;;;10.12;100.00;96822.44;4981598;28;20092;-69
2022/05/05 05:04:07;;;;;;;9.77;7.47;;;;;;;10.00;100.00;96820.63;4986228;28;20060;-66
2022/05/05 05:06:34;;;;;;;12.02;7.97;;;;;;;9.85;100.00;96816.00;5000082;28;20557;-65
2022/05/05 05:08:59;;;;;;;14.18;8.80;;;;;;;9.93;100.00;96824.00;4987564;28;20474;-68
2022/05/05 05:11:25;;;;;;;12.63;8.70;;;;;;;10.09;100.00;96832.16;4974951;28;20046;-66
2022/05/05 05:13:50;;;;;;;12.60;8.70;;;;;;;10.38;100.00;96831.97;4981051;28;20451;-68
2022/05/05 05:16:16;;;;;;;15.38;9.00;;;;;;;10.62;100.00;96842.56;4976399;28;20082;-67
2022/05/05 05:18:41;;;;;;;14.65;9.20;;;;;;;10.69;100.00;96842.69;4981661;28;20046;-67
2022/05/05 05:21:07;;;;;;;11.88;9.13;;;;;;;10.93;100.00;96842.72;4955536;28;20038;-68
2022/05/05 05:23:32;;;;;;;18.48;9.00;;;;;;;11.06;100.00;96847.66;4982253;28;20046;-69
2022/05/05 05:25:58;;;;;;;12.48;7.28;;;;;;;11.29;100.00;96858.63;4996240;28;20041;-67
2022/05/05 05:28:24;;;;;;;12.82;7.25;;;;;;;11.45;100.00;96868.63;4977034;28;21091;-68
2022/05/05 05:30:49;;;;;;;12.15;7.20;;;;;;;11.47;100.00;96871.81;4982635;28;20387;-67
2022/05/05 05:33:15;;;;;;;13.02;7.70;;;;;;;11.62;100.00;96865.38;4976102;28;20074;-68
2022/05/05 05:35:40;;;;;;;11.90;7.15;;;;;;;11.68;100.00;96863.09;4993583;28;20042;-67
2022/05/05 05:38:06;;;;;;;11.45;7.13;;;;;;;11.74;100.00;96869.06;4980986;28;20130;-68
2022/05/05 05:40:32;;;;;;;11.82;7.13;;;;;;;11.83;100.00;96867.66;4971742;28;20046;-68
2022/05/05 05:42:58;;;;;;;11.13;7.70;;;;;;;11.90;100.00;96866.16;4981948;28;20037;-68
2022/05/05 05:45:24;;;;;;;16.02;7.47;;;;;;;12.04;100.00;96855.41;4972983;28;20117;-67
2022/05/05 05:47:49;;;;;;;14.60;8.10;;;;;;;12.22;100.00;96855.63;4982776;28;20047;-66
2022/05/05 05:50:15;;;;;;;11.07;7.88;;;;;;;12.41;100.00;96865.69;4977460;28;20053;-66
2022/05/05 05:52:41;;;;;;;12.85;7.95;;;;;;;12.94;100.00;96862.69;4981596;28;20061;-67
2022/05/05 05:55:07;;;;;;;12.10;8.52;;;;;;;13.41;100.00;96871.38;4976817;28;20503;-67
2022/05/05 05:57:32;;;;;;;11.00;7.32;;;;;;;13.67;100.00;96867.66;4980538;28;20430;-67
2022/05/05 05:59:58;;;;;;;15.15;7.80;;;;;;;13.68;100.00;96860.97;4981999;28;20037;-67
2022/05/05 06:05:07;;;;;;;12.65;8.60;;;;;;;13.86;100.00;96861.06;4970135;28;20442;-66
2022/05/05 06:07:33;;;;;;;12.45;7.25;;;;;;;14.43;100.00;96868.06;4983539;28;20038;-67
2022/05/05 06:09:58;;;;;;;12.95;8.13;;;;;;;14.28;100.00;96869.97;4979048;28;20042;-66
2022/05/05 06:12:24;;;;;;;15.85;7.85;;;;;;;14.64;100.00;96875.63;4976599;28;20659;-68
2022/05/05 06:14:49;;;;;;;14.02;7.55;;;;;;;15.07;98.39;96868.25;4981349;28;20054;-67
2022/05/05 06:17:15;;;;;;;10.27;7.50;;;;;;;15.26;96.29;96860.78;4974773;28;20546;-67
2022/05/05 06:19:41;;;;;;;11.63;6.25;;;;;;;15.68;93.66;96867.44;4982318;28;20478;-68
2022/05/05 06:22:07;;;;;;;10.55;6.90;;;;;;;16.52;87.99;96871.63;4977373;28;20053;-66
2022/05/05 06:24:32;;;;;;;11.70;6.93;;;;;;;18.22;83.10;96864.44;4981496;28;20039;-68
2022/05/05 06:26:58;;;;;;;10.75;5.47;;;;;;;19.86;69.69;96876.41;4995351;28;20042;-66
2022/05/05 06:29:25;;;;;;;7.53;5.28;;;;;;;19.93;65.56;96876.28;4976379;28;20678;-67
2022/05/05 06:31:51;;;;;;;8.40;5.43;;;;;;;20.44;65.08;96876.91;4980966;28;20100;-67
2022/05/05 06:34:16;;;;;;;7.65;5.30;;;;;;;20.07;67.15;96880.03;4976749;28;20046;-68
2022/05/05 06:36:42;;;;;;;11.10;5.25;;;;;;;20.03;65.05;96885.66;4993627;28;20043;-67
2022/05/05 06:39:07;;;;;;;6.53;4.55;;;;;;;19.18;68.69;96883.81;4990108;28;20543;-66
2022/05/05 06:41:34;;;;;;;10.63;5.60;;;;;;;18.42;70.33;96884.00;4982505;28;20038;-67
2022/05/05 06:44:00;;;;;;;6.07;4.85;;;;;;;19.09;69.15;96886.34;4982417;28;20061;-68
2022/05/05 06:46:25;;;;;;;5.68;4.43;;;;;;;18.93;69.10;96886.19;4980973;28;20085;-67
2022/05/05 06:48:51;;;;;;;7.55;4.88;;;;;;;18.27;70.48;96888.13;4983739;28;20039;-68
2022/05/05 06:51:16;;;;;;;7.50;4.93;;;;;;;18.14;71.98;96896.19;4986059;28;20113;-67
2022/05/05 06:53:42;;;;;;;7.72;5.15;;;;;;;18.28;71.91;96890.50;4982467;28;20042;-67
2022/05/05 06:56:07;;;;;;;8.52;4.75;;;;;;;17.95;71.65;96892.00;4975608;28;20042;-69
2022/05/05 06:58:33;;;;;;;8.13;4.72;;;;;;;17.26;74.72;96894.53;4981416;28;20046;-68
2022/05/05 07:03:42;;;;;;;6.20;4.97;;;;;;;17.31;76.30;96905.19;4989660;28;20046;-68
2022/05/05 07:06:10;;;;;;;8.32;4.68;;;;;;;17.36;76.66;96904.75;4997135;28;20101;-67
2022/05/05 07:11:21;;;;;;;6.90;4.80;;;;;;;17.44;74.69;96905.47;4972193;28;20046;-67
2022/05/05 07:13:47;;;;;;;5.75;4.53;;;;;;;17.38;76.47;96902.38;4981148;28;20133;-66
2022/05/05 07:16:12;;;;;;;7.85;4.68;;;;;;;17.53;74.96;96900.25;4974667;28;20126;-67
2022/05/05 07:18:37;;;;;;;8.63;4.32;;;;;;;17.67;74.85;96902.13;4980480;28;20057;-65
2022/05/05 07:21:03;;;;;;;9.57;4.75;;;;;;;17.76;73.56;96893.34;4981191;28;20214;-72
2022/05/05 07:23:28;;;;;;;5.53;3.75;;;;;;;17.79;73.68;96892.56;4983624;28;20042;-65
2022/05/05 07:25:54;;;;;;;7.22;4.65;;;;;;;17.66;73.92;96895.00;4978604;28;20042;-67
2022/05/05 07:28:19;;;;;;;8.05;4.07;;;;;;;17.64;72.92;96891.88;4976244;28;20038;-66
2022/05/05 07:30:45;;;;;;;5.40;4.20;;;;;;;17.81;71.54;96890.16;4980029;28;20085;-67
2022/05/05 07:33:10;;;;;;;8.13;4.55;;;;;;;17.18;73.68;96887.50;4971200;28;20044;-67
2022/05/05 07:35:39;;;;;;;6.57;4.13;;;;;;;17.59;71.86;96892.31;4979985;28;20084;-66
2022/05/05 07:38:05;;;;;;;6.10;4.35;;;;;;;17.98;71.34;96895.97;4978024;28;20067;-69
2022/05/05 07:40:35;;;;;;;7.28;3.70;;;;;;;19.20;67.09;96895.28;4982026;28;20050;-65
2022/05/05 07:43:00;;;;;;;6.82;4.57;;;;;;;19.64;63.84;96900.97;4973589;28;20039;-65
2022/05/05 07:45:26;;;;;;;6.97;3.67;;;;;;;19.45;62.88;96902.47;4978064;28;20057;-66
2022/05/05 07:47:51;;;;;;;7.00;4.35;;;;;;;18.87;64.85;96908.03;4984952;28;20046;-66
2022/05/05 07:50:16;;;;;;;7.25;4.40;;;;;;;18.64;65.33;96909.50;4980583;28;20088;-67
2022/05/05 07:52:42;;;;;;;8.57;5.15;;;;;;;19.17;65.47;96912.78;4984305;28;20050;-66
2022/05/05 07:55:08;;;;;;;7.40;4.45;;;;;;;19.26;64.39;96912.25;4983100;28;20078;-71
2022/05/05 07:57:42;;;;;;;6.53;5.15;;;;;;;17.94;71.10;96913.41;4983679;28;20510;-68
2022/05/05 08:00:10;;;;;;;10.02;6.50;;;;;;;16.91;77.77;96912.16;4976338;28;20049;-69
2022/05/05 08:02:35;;;;;;;10.85;6.57;;;;;;;17.01;76.38;96925.13;4988152;28;20052;-68
2022/05/05 08:05:01;;;;;;;7.25;5.40;;;;;;;16.24;82.94;96925.78;4987546;28;20038;-65
2022/05/05 08:07:27;;;;;;;6.85;5.22;;;;;;;16.64;79.67;96923.72;4979231;28;20046;-67
2022/05/05 08:09:54;;;;;;;7.38;5.53;;;;;;;16.28;80.68;96920.25;4979243;28;20661;-66
2022/05/05 08:12:19;;;;;;;7.55;4.90;;;;;;;16.63;79.63;96924.88;4980767;28;20054;-69
2022/05/05 08:14:44;;;;;;;7.72;4.68;;;;;;;17.00;77.28;96927.13;4989351;28;20030;-69
2022/05/05 08:17:10;;;;;;;6.72;4.50;;;;;;;17.33;75.20;96918.63;4984347;28;20482;-70
2022/05/05 08:19:35;;;;;;;7.53;4.80;;;;;;;17.58;74.58;96921.97;4994522;28;20049;-67
2022/05/05 08:22:00;;;;;;;6.43;4.60;;;;;;;17.99;74.56;96914.94;4987140;28;20463;-67
2022/05/05 08:29:54;;;;;;;6.90;4.60;;;;;;;17.56;74.87;96921.59;4986967;28;20073;-66
2022/05/05 08:32:19;;;;;;;6.43;4.30;;;;;;;17.17;76.12;96913.56;4985209;28;20077;-66
2022/05/05 08:34:45;;;;;;;7.63;4.95;;;;;;;17.65;74.63;96912.84;4988318;28;20184;-67
2022/05/05 08:37:10;;;;;;;8.02;5.18;;;;;;;17.65;74.50;96914.84;4977401;28;20582;-66
2022/05/05 08:39:36;;;;;;;10.73;5.30;;;;;;;17.50;74.98;96923.25;4981211;28;20497;-67
2022/05/05 08:42:03;;;;;;;11.40;4.90;;;;;;;16.98;76.16;96925.97;4982986;28;20387;-68
2022/05/05 08:44:29;;;;;;;11.48;5.18;;;;;;;17.08;77.28;96921.53;4980489;28;20566;-68
2022/05/05 08:46:55;;;;;;;5.72;3.85;;;;;;;17.61;75.28;96925.13;4980359;28;20042;-65
2022/05/05 08:49:23;;;;;;;6.93;4.53;;;;;;;17.66;74.10;96919.94;4978045;28;20038;-66
2022/05/05 08:51:52;;;;;;;5.18;4.00;;;;;;;17.43;72.94;96919.72;4988994;28;20038;-66
2022/05/05 08:54:19;;;;;;;5.40;3.90;;;;;;;18.04;74.00;96928.38;4976616;28;20051;-67
2022/05/05 08:56:48;;;;;;;10.02;4.35;;;;;;;18.44;71.38;96933.47;4981917;28;20045;-67
2022/05/05 08:59:18;;;;;;;13.35;4.40;;;;;;;18.54;71.23;96927.81;4977796;28;20042;-68
2022/05/05 09:01:44;;;;;;;6.43;4.20;;;;;;;18.70;69.24;96927.25;4981302;28;20050;-68
2022/05/05 09:04:10;;;;;;;8.27;5.47;;;;;;;19.14;67.87;96924.75;4978008;28;20050;-67
2022/05/05 09:06:51;;;;;;;7.20;4.90;;;;;;;18.88;67.77;96927.03;4982018;28;20038;-69
2022/05/05 09:09:25;;;;;;;8.13;5.30;;;;;;;18.57;70.49;96920.66;4977301;28;20448;-67
2022/05/05 09:12:14;;;;;;;5.80;4.25;;;;;;;18.93;68.34;96925.03;4982854;28;20046;-65
2022/05/05 09:14:41;;;;;;;9.25;4.15;;;;;;;19.32;66.03;96924.50;4982150;28;20086;-67
2022/05/05 09:17:08;;;;;;;5.00;3.60;;;;;;;19.14;67.24;96919.19;4975308;28;20607;-66
2022/05/05 09:19:38;;;;;;;4.93;3.88;;;;;;;18.89;67.41;96919.53;4981338;28;20049;-67
2022/05/05 09:22:08;;;;;;;6.97;4.70;;;;;;;19.00;66.83;96920.16;4977686;28;20122;-72
2022/05/05 09:24:40;;;;;;;5.90;4.63;;;;;;;18.73;67.80;96925.63;4981971;28;20137;-67
2022/05/05 09:27:15;;;;;;;9.02;4.43;;;;;;;18.00;70.44;96922.06;4977839;28;20408;-67
2022/05/05 09:29:41;;;;;;;5.47;3.75;;;;;;;18.16;70.36;96927.06;4982759;28;20348;-67
2022/05/05 09:32:12;;;;;;;5.45;4.13;;;;;;;17.99;71.52;96925.22;4976201;28;20056;-67
2022/05/05 09:34:39;;;;;;;5.57;4.03;;;;;;;18.30;70.10;96928.91;4981911;28;20038;-66
2022/05/05 09:37:18;;;;;;;5.25;4.38;;;;;;;18.45;69.44;96918.44;4976881;28;20061;-69
2022/05/05 09:39:43;;;;;;;7.30;4.93;;;;;;;18.23;68.56;96920.66;4981993;28;20046;-67
2022/05/05 09:42:08;;;;;;;5.72;4.30;;;;;;;18.52;68.48;96926.66;4976659;28;20312;-67
2022/05/05 09:44:43;;;;;;;6.47;4.15;;;;;;;17.67;72.32;96927.06;4982685;28;20050;-66
2022/05/05 09:47:15;;;;;;;6.20;4.28;;;;;;;18.06;70.67;96928.75;4979418;28;20078;-69
2022/05/05 09:49:56;;;;;;;7.70;4.22;;;;;;;18.29;69.52;96927.31;4984216;28;20471;-69
2022/05/05 09:57:56;;;;;;;5.82;4.03;;;;;;;18.13;70.70;96934.22;4978597;28;20042;-65
2022/05/05 10:00:44;;;;;;;6.63;4.22;;;;;;;18.61;67.71;96932.50;4978247;28;20263;-67
2022/05/05 10:05:56;;;;;;;8.90;5.38;;;;;;;18.72;66.04;96930.38;4979564;28;20041;-65
2022/05/05 10:08:45;;;;;;;6.00;4.22;;;;;;;18.48;67.66;96925.94;4980349;28;20681;-66
2022/05/05 10:11:14;;;;;;;8.10;4.22;;;;;;;18.60;66.68;96919.84;4957647;28;20077;-67
2022/05/05 10:13:40;;;;;;;8.48;3.85;;;;;;;18.46;67.99;96926.34;4962737;28;20054;-65
2022/05/05 10:16:07;;;;;;;7.57;3.72;;;;;;;18.56;67.91;96924.63;4963102;28;20673;-66
2022/05/05 10:18:38;;;;;;;5.32;4.20;;;;;;;18.28;68.88;96918.22;4996939;28;20062;-70
2022/05/05 10:21:08;;;;;;;6.78;4.88;;;;;;;18.60;67.47;96921.81;4983879;28;20089;-70
2022/05/05 10:23:52;;;;;;;5.38;4.22;;;;;;;18.86;66.37;96912.81;4986153;28;20045;-65
2022/05/05 10:26:25;;;;;;;6.85;4.35;;;;;;;19.24;65.23;96914.69;4979796;28;20545;-66
2022/05/05 10:28:50;;;;;;;5.43;3.78;;;;;;;19.05;65.16;96914.16;4982983;28;20050;-65
2022/05/05 10:31:31;;;;;;;8.00;4.28;;;;;;;19.29;64.67;96916.97;4973832;28;20073;-64
2022/05/05 10:34:08;;;;;;;6.15;3.63;;;;;;;19.79;63.09;96918.22;4973787;28;20573;-64
2022/05/05 10:36:36;;;;;;;7.30;4.50;;;;;;;19.46;64.25;96921.50;4979567;28;20054;-64
2022/05/05 10:39:18;;;;;;;6.05;4.32;;;;;;;19.82;62.56;96911.81;4980763;28;20399;-68
2022/05/05 10:41:44;;;;;;;6.97;4.38;;;;;;;19.23;65.07;96905.56;4981176;28;20105;-65
2022/05/05 10:44:17;;;;;;;7.47;4.55;;;;;;;19.72;64.15;96909.97;4977394;28;20042;-65
2022/05/05 10:47:03;;;;;;;9.50;5.38;;;;;;;19.93;63.64;96911.63;4993645;28;20296;-66
2022/05/05 10:52:12;;;;;;;8.45;5.38;;;;;;;20.46;62.53;96906.31;4978495;28;20137;-68
2022/05/05 10:54:39;;;;;;;7.50;5.15;;;;;;;20.26;62.68;96898.72;4980705;28;20046;-68
2022/05/05 10:57:23;;;;;;;7.32;4.90;;;;;;;20.48;61.99;96890.75;4972660;28;20129;-64
2022/05/05 11:00:07;;;;;;;6.95;5.28;;;;;;;20.43;61.91;96888.47;4970343;28;20173;-67
2022/05/05 11:02:33;;;;;;;8.55;5.07;;;;;;;20.47;62.34;96886.38;4977147;28;20058;-67
2022/05/05 11:05:24;;;;;;;8.52;5.80;;;;;;;20.46;62.88;96873.69;4980561;28;20126;-67
2022/05/05 11:07:51;;;;;;;7.78;5.05;;;;;;;20.55;62.53;96879.47;4980444;28;20518;-64
2022/05/05 11:10:43;;;;;;;7.07;5.72;;;;;;;19.15;67.37;96875.53;4979041;28;20655;-67
2022/05/05 11:13:35;;;;;;;8.70;5.25;;;;;;;19.64;66.18;96873.19;4978049;28;20046;-66
2022/05/05 11:22:20;;;;;;;9.55;5.88;;;;;;;19.60;65.24;96872.47;4967393;28;20054;-64
2022/05/05 11:24:50;;;;;;;9.57;5.57;;;;;;;19.43;66.08;96866.78;4984171;28;20046;-67
2022/05/05 11:27:18;;;;;;;8.73;5.88;;;;;;;19.04;67.06;96864.59;4977833;28;20104;-67
2022/05/05 11:29:54;;;;;;;8.40;5.53;;;;;;;19.03;67.63;96858.28;4981063;28;20484;-66
2022/05/05 11:32:22;;;;;;;9.77;4.78;;;;;;;19.06;65.12;96868.50;4976334;28;20136;-66
2022/05/05 11:34:48;;;;;;;13.27;5.03;;;;;;;19.57;64.35;96862.19;4997131;23;20026;-70
2022/05/05 11:37:14;;;;;;;10.32;5.28;;;;;;;19.41;64.76;96860.88;4941617;28;20435;-70
2022/05/05 11:39:40;;;;;;;7.13;4.70;;;;;;;19.62;63.79;96862.47;4966451;28;20518;-69
2022/05/05 11:42:10;;;;;;;6.30;4.57;;;;;;;19.95;61.03;96848.06;4958772;28;20085;-71
2022/05/05 11:44:41;;;;;;;9.77;5.00;;;;;;;20.46;60.79;96859.78;4960314;28;20054;-69
2022/05/05 11:47:20;;;;;;;6.85;4.70;;;;;;;20.86;59.25;96850.66;4933874;28;20188;-68
2022/05/05 11:49:47;;;;;;;6.13;3.67;;;;;;;21.15;58.13;96845.22;4928127;29;20134;-68
2022/05/05 11:52:21;;;;;;;6.35;4.60;;;;;;;21.40;56.00;96841.81;4929278;28;20303;-71
2022/05/05 11:54:56;;;;;;;8.32;4.57;;;;;;;21.72;53.78;96841.06;4942327;28;20138;-70
2022/05/05 11:57:38;;;;;;;7.82;5.38;;;;;;;21.47;55.98;96841.69;4940027;29;20091;-71
2022/05/05 12:02:53;;;;;;;8.63;5.22;;;;;;;19.88;57.58;96843.44;4946062;29;20079;-70
2022/05/05 12:05:21;;;;;;;8.35;6.05;;;;;;;20.03;60.07;96836.38;4940529;28;20078;-69
2022/05/05 12:07:47;;;;;;;10.82;4.45;;;;;;;20.15;58.34;96834.97;4944890;28;20058;-68
2022/05/05 12:10:14;;;;;;;9.20;4.85;;;;;;;20.24;57.81;96835.19;4963843;28;20046;-70
2022/05/05 12:12:48;;;;;;;8.95;5.78;;;;;;;20.99;55.26;96826.47;4982950;28;20047;-70
2022/05/05 12:15:20;;;;;;;7.55;5.40;;;;;;;20.54;55.91;96827.03;4959604;28;20117;-73